ADDS METAR Data INFO
IDs: Format: Raw Decoded Include TAF

Data at: 0808 UTC 24 May 2018

KRKS 240754Z AUTO 23008KT 10SM CLR 08/03 A3014 RMK AO2 SLP155 T00830028
KRKS 240654Z AUTO 22010KT 10SM CLR 08/03 A3014 RMK AO2 SLP159 T00830028 401890039
KRKS 240554Z AUTO 24008KT 10SM CLR 08/03 A3014 RMK AO2 SLP160 60000 T00780028 10161 20078 51006
KRKS 240454Z AUTO 23009KT 10SM CLR 10/03 A3014 RMK AO2 SLP154 T01000028
KRKS 240354Z AUTO 23010KT 10SM CLR 11/03 A3014 RMK AO2 SLP153 T01060028
KRKS 240254Z AUTO 21007KT 10SM CLR 11/02 A3012 RMK AO2 SLP153 60000 T01060022 53010
KRKS 240154Z AUTO 21009KT 10SM FEW080 SCT095 BKN110 13/01 A3009 RMK AO2 PK WND 26030/0103 RAB0058E07 SLP141 P0000 T01330006
KRKS 240054Z AUTO 25019G27KT 10SM SCT075 SCT095 14/02 A3010 RMK AO2 PK WND 25027/0052 SLP150 T01440017
KRKS 232354Z AUTO 26011KT 10SM CLR 16/00 A3008 RMK AO2 SLP142 60000 T01560000 10189 20122 53007
KRKS 232254Z AUTO 26011KT 10SM CLR 16/01 A3007 RMK AO2 PK WND 27029/2218 LTG DSNT E SLP134 T01610006
KRKS 232154Z AUTO 23010G23KT 10SM FEW070 18/01 A3006 RMK AO2 SLP126 T01780011
KRKS 232054Z AUTO 27013G18KT 10SM FEW060 17/03 A3006 RMK AO2 SLP128 60000 T01670028 51000
KRKS 231954Z AUTO 21012KT 10SM FEW095 15/02 A3005 RMK AO2 PK WND 18036/1907 LTG DSNT W-NE RAB05E17 SLP127 P0000 T01500017
KRKS 231854Z AUTO 19017KT 10SM FEW080 SCT110 13/02 A3007 RMK AO2 PK WND 17026/1845 LTG DSNT ALQDS SLP136 T01280022
KRKS 231844Z AUTO 18020G26KT 10SM FEW095 SCT110 13/03 A3007 RMK AO2 PK WND 18026/1844 LTG DSNT E-S T01280028
KRKS 231826Z AUTO 20013KT 10SM VCTS FEW075 BKN100 14/06 A3007 RMK AO2 LTG DSNT E AND S T01390061
KRKS 231754Z AUTO 28004KT 10SM BKN110 13/06 A3006 RMK AO2 LTG DSNT S AND SW SLP132 T01330061 10150 20039 56005
KRKS 231654Z AUTO 00000KT 10SM BKN100 13/06 A3006 RMK AO2 SLP130 T01330061
KRKS 231554Z AUTO 00000KT 10SM CLR 12/06 A3007 RMK AO2 SLP136 T01220061
KRKS 231454Z AUTO 35003KT 10SM CLR 10/07 A3007 RMK AO2 SLP141 T01000067 51004
KRKS 231354Z AUTO 06004KT 10SM CLR 07/06 A3007 RMK AO2 SLP146 T00720056
KRKS 231321Z AUTO 05003KT 10SM FEW001 06/05 A3007 RMK AO2 T00560050
KRKS 231314Z AUTO 06003KT 2 1/2SM BR SCT001 05/04 A3007 RMK AO2 T00500044 $
KRKS 231312Z AUTO 07003KT 1SM BR VV001 05/04 A3007 RMK AO2 T00500044 $
KRKS 231254Z AUTO 35005KT 1/4SM FG VV001 04/03 A3007 RMK AO2 SLP158 T00390033 $
KRKS 231246Z AUTO 36004KT 3/4SM BR VV001 05/04 A3007 RMK AO2 T00500044 $
KRKS 231242Z AUTO 36004KT 1 3/4SM BR FEW001 06/04 A3007 RMK AO2 T00560044 $
KRKS 231154Z AUTO 15007KT 10SM CLR 04/03 A3006 RMK AO2 SLP147 7//// T00440028 10067 20044 53004 $
KRKS 231054Z AUTO 19004KT 10SM CLR 05/04 A3005 RMK AO2 SLP129 T00500039 $
KRKS 230954Z AUTO 19004KT 10SM CLR 05/04 A3004 RMK AO2 SLP130 T00500039 $
KRKS 230854Z AUTO 00000KT 10SM FEW120 06/04 A3004 RMK AO2 SLP126 T00560039 58007 $
KRKS 230754Z AUTO 24009KT 10SM FEW080 SCT110 07/05 A3006 RMK AO2 SLP121 T00670050 $
KRKS 230654Z AUTO 15010KT 10SM BKN100 07/06 A3006 RMK AO2 SLP123 T00670056 401890061 $
KRKS 230554Z AUTO 12006KT 10SM CLR 07/06 A3007 RMK AO2 SLP129 6//// T00670056 10094 20067 50003 $
KRKS 230454Z AUTO 12010KT 10SM CLR 08/07 A3007 RMK AO2 SLP130 T00780067 $
KRKS 230354Z AUTO 09010KT 10SM CLR 08/07 A3007 RMK AO2 SLP133 T00780067 $
KRKS 230254Z AUTO 07009KT 10SM SCT110 08/07 A3006 RMK AO2 SLP132 6//// T00830072 55003 $
KRKS 230154Z AUTO 31005KT 10SM OVC070 09/06 A3005 RMK AO2 RAE13 SLP130 P0000 T00890061 $
KRKS 230054Z AUTO 23007KT 7SM -RA FEW018 SCT039 OVC050 08/07 A3007 RMK AO2 RAB20 SLP139 T00830072 PNO $
KRKS 222354Z AUTO 09/07 A3007 RMK AO2 PK WND 19033/2320 RAB37RAEMM SLP139 P0003 60003 T00940067 10189 20094 53013 PWINO $
KRKS 222254Z AUTO 20011KT 10SM BKN090 OVC110 15/03 A3001 RMK AO2 LTG DSNT NE AND E SLP107 T01500028
KRKS 222154Z AUTO 23012KT 10SM FEW090 14/05 A3001 RMK AO2 PK WND 24031/2103 LTG DSNT NE AND E SLP109 T01390050
KRKS 222054Z AUTO 24023G34KT 10SM BKN110 14/04 A3002 RMK AO2 PK WND 24034/2054 WSHFT 2005 LTG DSNT NE AND NW SLP110 T01440044 55001
KRKS 222025Z AUTO 24018KT 10SM FEW050 BKN060 OVC090 17/03 A3001 RMK AO2 WSHFT 2005 LTG DSNT NE AND SE T01670028